createdAt,value
2022-12-10T00:01:57.837Z,11.70
2022-12-10T00:04:27.532Z,9.93
2022-12-10T00:06:57.097Z,11.10
2022-12-10T00:09:26.619Z,10.70
2022-12-10T00:11:56.200Z,10.37
2022-12-10T00:14:25.699Z,9.70
2022-12-10T00:16:57.801Z,11.50
2022-12-10T00:19:27.348Z,10.80
2022-12-10T00:21:56.806Z,11.80
2022-12-10T00:24:26.275Z,10.67
2022-12-10T00:26:55.744Z,11.33
2022-12-10T00:29:25.255Z,10.63
2022-12-10T00:31:57.422Z,9.97
2022-12-10T00:34:27.236Z,11.23
2022-12-10T00:36:56.771Z,11.07
2022-12-10T00:39:26.228Z,11.60
2022-12-10T00:41:55.664Z,10.67
2022-12-10T00:44:25.219Z,11.00
2022-12-10T00:46:57.938Z,11.83
2022-12-10T00:49:27.456Z,11.03
2022-12-10T00:51:56.931Z,10.20
2022-12-10T00:54:26.472Z,10.20
2022-12-10T00:56:56.025Z,10.47
2022-12-10T00:59:25.587Z,10.07
2022-12-10T01:01:57.724Z,10.67
2022-12-10T01:04:27.470Z,11.10
2022-12-10T01:06:57.659Z,10.00
2022-12-10T01:09:28.536Z,10.53
2022-12-10T01:11:58.950Z,9.57
2022-12-10T01:14:29.601Z,10.33
2022-12-10T01:17:03.697Z,10.20
2022-12-10T01:19:33.774Z,10.03
2022-12-10T01:22:05.002Z,10.50
2022-12-10T01:24:36.399Z,11.50
2022-12-10T01:27:05.949Z,11.20
2022-12-10T01:29:35.592Z,11.30
2022-12-10T01:32:07.741Z,11.53
2022-12-10T01:34:37.484Z,11.10
2022-12-10T01:37:07.022Z,11.03
2022-12-10T01:39:36.509Z,11.23
2022-12-10T01:42:06.195Z,10.53
2022-12-10T01:44:59.705Z,9.93
2022-12-10T01:47:33.573Z,10.13
2022-12-10T01:50:03.878Z,10.00
2022-12-10T01:52:33.639Z,12.73
2022-12-10T01:55:03.194Z,11.30
2022-12-10T01:57:32.773Z,11.47
2022-12-10T02:00:04.909Z,11.63
2022-12-10T02:02:50.240Z,11.13
2022-12-10T02:05:25.259Z,10.27
2022-12-10T02:07:58.143Z,9.87
2022-12-10T02:10:33.184Z,9.60
2022-12-10T02:13:08.800Z,11.60
2022-12-10T02:15:41.103Z,10.17
2022-12-10T02:18:15.766Z,10.70
2022-12-10T02:20:47.557Z,11.10
2022-12-10T02:23:18.671Z,10.30
2022-12-10T02:25:50.998Z,11.60
2022-12-10T02:28:25.093Z,10.60
2022-12-10T02:30:57.875Z,10.83
2022-12-10T02:33:29.444Z,10.17
2022-12-10T02:36:01.014Z,11.27
2022-12-10T02:38:32.242Z,11.13
2022-12-10T02:41:05.343Z,11.43
2022-12-10T02:43:36.470Z,11.07
2022-12-10T02:46:09.818Z,11.00
2022-12-10T02:48:39.993Z,11.60
2022-12-10T02:51:09.554Z,10.63
2022-12-10T02:53:44.967Z,10.83
2022-12-10T02:56:19.903Z,10.53
2022-12-10T02:58:56.199Z,12.00
2022-12-10T03:01:33.934Z,10.57
2022-12-10T03:04:04.882Z,10.30
2022-12-10T03:06:36.693Z,10.57
2022-12-10T03:09:08.310Z,10.83
2022-12-10T03:11:38.188Z,10.20
2022-12-10T03:14:09.511Z,11.10
2022-12-10T03:16:43.317Z,10.47
2022-12-10T03:19:14.921Z,10.43
2022-12-10T03:21:45.431Z,10.27
2022-12-10T03:24:16.613Z,11.00
2022-12-10T03:26:47.607Z,10.53
2022-12-10T03:29:19.336Z,12.07
2022-12-10T03:31:52.250Z,10.90
2022-12-10T03:34:21.772Z,9.40
2022-12-10T03:36:51.896Z,9.27
2022-12-10T03:39:21.745Z,10.43
2022-12-10T03:41:51.243Z,10.07
2022-12-10T03:44:30.728Z,10.17
2022-12-10T03:47:03.071Z,11.80
2022-12-10T03:49:32.660Z,9.67
2022-12-10T03:52:02.113Z,10.17
2022-12-10T03:54:31.610Z,10.50
2022-12-10T03:57:01.284Z,10.57
2022-12-10T03:59:30.797Z,10.70
2022-12-10T04:02:04.185Z,11.43
2022-12-10T04:04:33.752Z,11.17
2022-12-10T04:07:03.176Z,11.87
2022-12-10T04:09:32.742Z,11.07
2022-12-10T04:12:02.429Z,10.60
2022-12-10T04:14:45.388Z,10.50
2022-12-10T04:17:17.508Z,11.07
2022-12-10T04:19:47.005Z,10.43
2022-12-10T04:22:28.857Z,11.23
2022-12-10T04:25:22.816Z,10.57
2022-12-10T04:27:52.327Z,10.70
2022-12-10T04:30:21.878Z,12.20
2022-12-10T04:32:53.970Z,10.90
2022-12-10T04:35:23.454Z,13.93
2022-12-10T04:37:52.945Z,11.43
2022-12-10T04:40:22.493Z,11.37
2022-12-10T04:42:51.937Z,11.43
2022-12-10T04:45:21.426Z,11.10
2022-12-10T04:47:54.652Z,11.73
2022-12-10T04:50:24.148Z,11.10
2022-12-10T04:52:53.621Z,11.10
2022-12-10T04:55:23.102Z,10.47
2022-12-10T04:57:53.400Z,10.77
2022-12-10T05:00:23.052Z,10.70
2022-12-10T05:02:55.327Z,10.73
2022-12-10T05:05:24.876Z,10.87
2022-12-10T05:07:54.395Z,10.40
2022-12-10T05:10:23.900Z,10.17
2022-12-10T05:12:53.422Z,10.47
2022-12-10T05:15:23.046Z,10.27
2022-12-10T05:17:55.163Z,10.53
2022-12-10T05:20:24.730Z,8.93
2022-12-10T05:23:06.607Z,10.00
2022-12-10T05:25:53.856Z,10.63
2022-12-10T05:28:23.678Z,10.37
2022-12-10T05:30:53.178Z,10.30
2022-12-10T05:33:25.426Z,9.83
2022-12-10T05:35:55.696Z,10.40
2022-12-10T05:38:25.212Z,11.30
2022-12-10T05:40:57.183Z,11.17
2022-12-10T05:43:28.215Z,10.43
2022-12-10T05:45:57.769Z,9.93
2022-12-10T05:48:29.843Z,12.43
2022-12-10T05:50:59.422Z,11.23
2022-12-10T05:53:29.487Z,11.70
2022-12-10T05:56:03.327Z,11.97
2022-12-10T05:58:32.822Z,13.17
2022-12-10T06:01:02.305Z,11.10
2022-12-10T06:03:35.062Z,11.57
2022-12-10T06:06:05.964Z,10.90
2022-12-10T06:08:35.639Z,11.77
2022-12-10T06:11:06.047Z,10.80
2022-12-10T06:13:35.560Z,10.27
2022-12-10T06:16:08.012Z,12.33
2022-12-10T06:18:40.535Z,10.67
2022-12-10T06:21:10.946Z,11.33
2022-12-10T06:23:41.027Z,12.53
2022-12-10T06:26:10.998Z,13.50
2022-12-10T06:28:40.600Z,13.53
2022-12-10T06:31:10.327Z,12.77
2022-12-10T06:33:42.619Z,12.93
2022-12-10T06:36:13.146Z,12.10
2022-12-10T06:38:42.845Z,11.77
2022-12-10T06:41:13.004Z,11.90
2022-12-10T06:43:42.524Z,12.20
2022-12-10T06:46:12.888Z,11.77
2022-12-10T06:48:45.772Z,11.07
2022-12-10T06:51:18.423Z,11.00
2022-12-10T06:53:48.124Z,11.10
2022-12-10T06:56:18.302Z,11.77
2022-12-10T06:58:48.011Z,10.87
2022-12-10T07:01:18.684Z,10.83
2022-12-10T07:03:51.642Z,11.37
2022-12-10T07:06:21.564Z,11.77
2022-12-10T07:08:52.013Z,11.63
2022-12-10T07:11:22.698Z,11.03
2022-12-10T07:13:52.160Z,11.33
2022-12-10T07:16:22.461Z,10.80
2022-12-10T07:18:55.100Z,12.63
2022-12-10T07:21:25.548Z,11.03
2022-12-10T07:23:56.069Z,11.30
2022-12-10T07:26:25.972Z,11.53
2022-12-10T07:28:56.864Z,11.50
2022-12-10T07:31:26.748Z,11.27
2022-12-10T07:34:00.496Z,11.57
2022-12-10T07:36:30.375Z,11.60
2022-12-10T07:38:59.897Z,11.20
2022-12-10T07:41:30.394Z,10.77
2022-12-10T07:44:01.254Z,11.03
2022-12-10T07:46:32.047Z,10.97
2022-12-10T07:49:06.148Z,10.87
2022-12-10T07:51:35.668Z,12.27
2022-12-10T07:54:05.426Z,12.57
2022-12-10T07:56:34.898Z,12.60
2022-12-10T07:59:04.351Z,12.30
2022-12-10T08:01:33.976Z,13.40
2022-12-10T08:04:06.321Z,11.93
2022-12-10T08:06:36.052Z,11.60
2022-12-10T08:09:05.750Z,12.60
2022-12-10T08:11:35.283Z,12.93
2022-12-10T08:14:04.699Z,11.80
2022-12-10T08:16:34.880Z,13.00
2022-12-10T08:19:07.076Z,11.97
2022-12-10T08:21:36.931Z,11.53
2022-12-10T08:24:06.620Z,11.63
2022-12-10T08:26:36.541Z,11.87
2022-12-10T08:29:06.069Z,12.73
2022-12-10T08:31:37.872Z,12.07
2022-12-10T08:34:14.638Z,12.03
2022-12-10T08:36:44.237Z,13.87
2022-12-10T08:39:16.325Z,13.03
2022-12-10T08:41:46.113Z,11.87
2022-12-10T08:44:15.554Z,12.33
2022-12-10T08:46:45.074Z,12.20
2022-12-10T08:49:17.193Z,13.73
2022-12-10T08:51:46.914Z,13.20
2022-12-10T08:54:16.399Z,13.70
2022-12-10T08:56:45.903Z,14.23
2022-12-10T08:59:15.376Z,13.97
2022-12-10T09:01:44.950Z,12.17
2022-12-10T09:04:17.393Z,12.43
2022-12-10T09:06:47.115Z,12.63
2022-12-10T09:09:17.512Z,12.57
2022-12-10T09:11:47.442Z,12.13
2022-12-10T09:14:16.924Z,12.63
2022-12-10T09:16:46.467Z,12.90
2022-12-10T09:19:20.549Z,11.70
2022-12-10T09:21:50.878Z,11.67
2022-12-10T09:24:20.361Z,11.87
2022-12-10T09:26:50.516Z,12.87
2022-12-10T09:29:19.979Z,13.20
2022-12-10T09:31:53.475Z,12.97
2022-12-10T09:34:25.664Z,12.33
2022-12-10T09:36:55.260Z,11.77
2022-12-10T09:39:24.717Z,11.17
2022-12-10T09:42:11.075Z,11.73
2022-12-10T09:44:44.995Z,11.50
2022-12-10T09:47:14.935Z,12.40
2022-12-10T09:49:52.479Z,12.70
2022-12-10T09:52:23.994Z,13.07
2022-12-10T09:54:56.581Z,13.83
2022-12-10T09:57:29.688Z,12.07
2022-12-10T09:59:59.854Z,12.93
2022-12-10T10:02:30.130Z,13.00
2022-12-10T10:05:04.943Z,11.90
2022-12-10T10:07:35.631Z,12.73
2022-12-10T10:10:07.068Z,12.63
2022-12-10T10:12:37.570Z,13.27
2022-12-10T10:15:16.017Z,11.83
2022-12-10T10:17:47.999Z,11.53
2022-12-10T10:20:20.117Z,13.17
2022-12-10T10:22:49.682Z,13.07
2022-12-10T10:25:21.148Z,12.30
2022-12-10T10:27:50.753Z,11.67
2022-12-10T10:30:22.134Z,12.53
2022-12-10T10:32:52.896Z,12.87
2022-12-10T10:35:29.973Z,12.57
2022-12-10T10:38:04.069Z,11.63
2022-12-10T10:40:35.638Z,12.83
2022-12-10T10:43:05.715Z,11.50
2022-12-10T10:45:37.118Z,12.57
2022-12-10T10:48:13.214Z,10.90
2022-12-10T10:50:46.459Z,12.63
2022-12-10T10:53:25.869Z,11.40
2022-12-10T10:55:56.201Z,12.03
2022-12-10T10:58:26.160Z,12.23
2022-12-10T11:01:00.741Z,12.23
2022-12-10T11:03:31.577Z,12.60
2022-12-10T11:06:03.927Z,12.70
2022-12-10T11:08:35.046Z,13.13
2022-12-10T11:11:06.487Z,12.37
2022-12-10T11:13:37.629Z,12.50
2022-12-10T11:16:15.292Z,13.10
2022-12-10T11:18:46.582Z,12.13
2022-12-10T11:21:23.345Z,14.00
2022-12-10T11:23:55.507Z,12.67
2022-12-10T11:26:39.629Z,14.57
2022-12-10T11:29:17.800Z,13.87
2022-12-10T11:31:52.381Z,12.90
2022-12-10T11:34:23.766Z,14.17
2022-12-10T11:37:03.337Z,13.53
2022-12-10T11:39:43.546Z,16.17
2022-12-10T11:42:18.661Z,14.60
2022-12-10T11:44:53.669Z,19.17
2022-12-10T11:47:31.481Z,14.60
2022-12-10T11:50:07.969Z,13.93
2022-12-10T11:52:45.467Z,12.87
2022-12-10T11:55:21.441Z,13.73
2022-12-10T11:57:52.871Z,13.63
2022-12-10T12:00:24.714Z,13.97
2022-12-10T12:03:11.791Z,13.87
2022-12-10T12:05:50.249Z,13.83
2022-12-10T12:08:27.058Z,12.87
2022-12-10T12:11:02.552Z,13.63
2022-12-10T12:13:33.312Z,13.53
2022-12-10T12:16:05.513Z,14.67
2022-12-10T12:18:40.224Z,13.97
2022-12-10T12:21:11.782Z,14.20
2022-12-10T12:23:46.651Z,14.37
2022-12-10T12:26:18.055Z,14.77
2022-12-10T12:28:50.589Z,13.80
2022-12-10T12:31:22.471Z,14.37
2022-12-10T12:33:55.599Z,13.37
2022-12-10T12:36:25.691Z,14.17
2022-12-10T12:39:01.958Z,15.67
2022-12-10T12:41:35.678Z,14.60
2022-12-10T12:44:08.632Z,13.67
2022-12-10T12:46:41.925Z,13.70
2022-12-10T12:49:15.079Z,14.10
2022-12-10T12:51:54.200Z,14.63
2022-12-10T12:54:26.332Z,14.43
2022-12-10T12:57:05.409Z,13.70
2022-12-10T12:59:40.567Z,14.43
2022-12-10T13:02:18.798Z,14.70
2022-12-10T13:04:48.461Z,14.27
2022-12-10T13:07:30.797Z,15.37
2022-12-10T13:10:21.306Z,15.33
2022-12-10T13:12:52.098Z,15.73
2022-12-10T13:15:23.355Z,15.20
2022-12-10T13:18:07.117Z,14.10
2022-12-10T13:20:38.033Z,16.63
2022-12-10T13:23:08.617Z,16.10
2022-12-10T13:25:45.203Z,13.80
2022-12-10T13:28:25.307Z,15.50
2022-12-10T13:31:11.032Z,15.40
2022-12-10T13:33:52.063Z,14.10
2022-12-10T13:36:31.760Z,16.13
2022-12-10T13:39:14.943Z,16.53
2022-12-10T13:42:27.825Z,18.13
2022-12-10T13:45:03.692Z,15.37
2022-12-10T13:47:36.533Z,14.27
2022-12-10T13:50:08.263Z,14.93
2022-12-10T13:52:43.009Z,13.87
2022-12-10T13:55:22.300Z,13.50
2022-12-10T13:58:09.841Z,14.57
2022-12-10T14:00:42.729Z,14.87
2022-12-10T14:03:31.793Z,15.37
2022-12-10T14:06:10.185Z,15.63
2022-12-10T14:08:41.566Z,14.97
2022-12-10T14:11:16.538Z,15.17
2022-12-10T14:13:50.919Z,14.27
2022-12-10T14:16:22.840Z,14.87
2022-12-10T14:18:55.738Z,16.83
2022-12-10T14:21:25.638Z,16.57
2022-12-10T14:23:56.649Z,16.40
2022-12-10T14:26:30.637Z,16.40
2022-12-10T14:29:03.625Z,17.23
2022-12-10T14:31:34.749Z,16.10
2022-12-10T14:34:05.350Z,17.50
2022-12-10T14:36:35.956Z,12.27
2022-12-10T14:39:05.540Z,12.00
2022-12-10T14:41:40.670Z,9.50
2022-12-10T14:44:16.407Z,9.43
2022-12-10T14:46:46.720Z,11.00
2022-12-10T14:49:18.944Z,8.83
2022-12-10T14:51:48.443Z,9.37
2022-12-10T14:54:27.946Z,8.73
2022-12-10T14:56:58.491Z,9.00
2022-12-10T14:59:33.682Z,9.03
2022-12-10T15:02:03.726Z,8.10
2022-12-10T15:04:44.496Z,8.10
2022-12-10T15:07:17.052Z,9.17
2022-12-10T15:09:46.986Z,8.77
2022-12-10T15:12:23.699Z,9.50
2022-12-10T15:14:56.977Z,9.20
2022-12-10T15:17:42.003Z,8.83
2022-12-10T15:20:22.937Z,10.30
2022-12-10T15:22:52.481Z,9.07
2022-12-10T15:25:26.516Z,9.70
2022-12-10T15:27:57.141Z,9.90
2022-12-10T15:30:36.572Z,9.80
2022-12-10T15:33:06.176Z,9.23
2022-12-10T15:35:38.824Z,8.93
2022-12-10T15:38:08.368Z,11.70
2022-12-10T15:40:40.948Z,16.70
2022-12-10T15:43:21.329Z,9.73
2022-12-10T15:45:53.780Z,9.57
2022-12-10T15:48:25.117Z,10.03
2022-12-10T15:50:54.644Z,8.27
2022-12-10T15:53:33.691Z,9.27
2022-12-10T15:56:04.880Z,8.57
2022-12-10T15:58:34.345Z,8.03
2022-12-10T16:01:06.619Z,9.60
2022-12-10T16:03:37.972Z,8.67
2022-12-10T16:06:07.605Z,8.43
2022-12-10T16:08:37.649Z,7.93
2022-12-10T16:11:13.901Z,8.60
2022-12-10T16:13:46.140Z,9.70
2022-12-10T16:16:18.722Z,9.53
2022-12-10T16:18:48.285Z,8.80
2022-12-10T16:21:17.807Z,8.23
2022-12-10T16:23:49.418Z,10.73
2022-12-10T16:26:20.252Z,9.60
2022-12-10T16:28:50.284Z,9.77
2022-12-10T16:31:23.265Z,9.33
2022-12-10T16:33:53.845Z,8.20
2022-12-10T16:36:23.412Z,8.60
2022-12-10T16:38:52.858Z,8.17
2022-12-10T16:41:24.664Z,12.93
2022-12-10T16:43:54.201Z,10.77
2022-12-10T16:46:26.273Z,12.00
2022-12-10T16:48:55.900Z,13.37
2022-12-10T16:51:27.028Z,10.97
2022-12-10T16:53:56.557Z,10.37
2022-12-10T16:56:26.320Z,9.70
2022-12-10T16:58:55.781Z,9.73
2022-12-10T17:01:29.019Z,9.00
2022-12-10T17:03:59.348Z,9.03
2022-12-10T17:06:29.608Z,8.30
2022-12-10T17:08:59.109Z,8.53
2022-12-10T17:11:42.440Z,9.20
2022-12-10T17:14:17.457Z,9.90
2022-12-10T17:16:49.687Z,9.50
2022-12-10T17:19:19.216Z,10.73
2022-12-10T17:21:48.780Z,9.10
2022-12-10T17:24:18.443Z,9.20
2022-12-10T17:26:49.136Z,9.37
2022-12-10T17:29:19.473Z,8.93
2022-12-10T17:31:51.602Z,9.20
2022-12-10T17:34:22.206Z,9.80
2022-12-10T17:36:51.797Z,10.10
2022-12-10T17:39:23.188Z,10.30
2022-12-10T17:41:53.132Z,8.90
2022-12-10T17:44:23.032Z,9.27
2022-12-10T17:46:55.186Z,9.57
2022-12-10T17:49:24.777Z,8.63
2022-12-10T17:51:59.455Z,9.77
2022-12-10T17:54:29.184Z,9.00
2022-12-10T17:56:58.626Z,8.73
2022-12-10T17:59:28.564Z,9.57
2022-12-10T18:02:00.816Z,9.40
2022-12-10T18:04:30.437Z,9.37
2022-12-10T18:06:59.932Z,9.73
2022-12-10T18:09:29.502Z,9.97
2022-12-10T18:11:59.041Z,8.87
2022-12-10T18:14:28.533Z,9.23
2022-12-10T18:17:00.717Z,10.57
2022-12-10T18:19:30.384Z,10.57
2022-12-10T18:21:59.836Z,11.47
2022-12-10T18:24:30.828Z,9.97
2022-12-10T18:27:00.989Z,11.83
2022-12-10T18:29:31.649Z,11.37
2022-12-10T18:32:03.974Z,10.17
2022-12-10T18:34:33.511Z,9.60
2022-12-10T18:37:03.228Z,10.47
2022-12-10T18:39:34.976Z,9.10
2022-12-10T18:42:04.529Z,9.07
2022-12-10T18:44:34.306Z,8.37
2022-12-10T18:47:06.810Z,9.00
2022-12-10T18:49:36.330Z,9.20
2022-12-10T18:52:05.808Z,9.30
2022-12-10T18:54:35.388Z,10.17
2022-12-10T18:57:33.227Z,10.40
2022-12-10T18:59:54.443Z,8.83
2022-12-10T19:02:26.596Z,10.97
2022-12-10T19:04:56.204Z,9.73
2022-12-10T19:07:25.680Z,9.63
2022-12-10T19:09:55.241Z,10.00
2022-12-10T19:12:24.783Z,10.90
2022-12-10T19:14:54.350Z,12.33
2022-12-10T19:17:26.466Z,11.33
2022-12-10T19:19:56.033Z,10.63
2022-12-10T19:22:26.062Z,10.37
2022-12-10T19:24:55.837Z,10.37
2022-12-10T19:27:25.354Z,10.97
2022-12-10T19:29:54.826Z,10.07
2022-12-10T19:32:26.944Z,11.00
2022-12-10T19:34:56.452Z,9.80
2022-12-10T19:37:27.861Z,11.50
2022-12-10T19:39:57.471Z,11.93
2022-12-10T19:42:27.135Z,10.47
2022-12-10T19:44:57.833Z,10.60
2022-12-10T19:47:30.190Z,10.53
2022-12-10T19:49:59.841Z,11.37
2022-12-10T19:52:29.408Z,10.23
2022-12-10T19:54:59.112Z,10.70
2022-12-10T19:57:28.649Z,11.43
2022-12-10T19:59:58.273Z,10.13
2022-12-10T20:02:31.330Z,10.93
2022-12-10T20:05:00.913Z,10.83
2022-12-10T20:07:30.770Z,10.50
2022-12-10T20:10:00.284Z,10.07
2022-12-10T20:12:29.754Z,10.97
2022-12-10T20:14:59.285Z,11.07
2022-12-10T20:17:31.382Z,11.00
2022-12-10T20:20:00.981Z,9.30
2022-12-10T20:22:30.501Z,8.37
2022-12-10T20:25:00.324Z,9.57
2022-12-10T20:27:30.440Z,10.07
2022-12-10T20:29:59.984Z,9.20
2022-12-10T20:32:32.157Z,10.03
2022-12-10T20:35:01.724Z,9.73
2022-12-10T20:37:31.270Z,9.67
2022-12-10T20:40:30.330Z,9.70
2022-12-10T20:42:50.880Z,9.53
2022-12-10T20:45:20.624Z,9.70
2022-12-10T20:47:52.801Z,10.73
2022-12-10T20:50:22.462Z,9.73
2022-12-10T20:52:51.965Z,9.90
2022-12-10T20:55:21.486Z,10.40
2022-12-10T20:57:51.027Z,9.47
2022-12-10T21:00:21.931Z,9.93
2022-12-10T21:02:54.209Z,9.30
2022-12-10T21:05:24.891Z,10.60
2022-12-10T21:07:54.485Z,11.17
2022-12-10T21:10:36.479Z,12.27
2022-12-10T21:13:06.897Z,13.43
2022-12-10T21:15:36.706Z,11.83
2022-12-10T21:18:09.000Z,10.47
2022-12-10T21:20:38.595Z,11.60
2022-12-10T21:23:08.549Z,11.27
2022-12-10T21:25:39.100Z,11.37
2022-12-10T21:28:09.007Z,11.90
2022-12-10T21:30:39.347Z,12.40
2022-12-10T21:33:11.768Z,11.43
2022-12-10T21:35:41.342Z,12.23
2022-12-10T21:38:10.903Z,10.73
2022-12-10T21:40:42.316Z,11.73
2022-12-10T21:43:17.841Z,12.50
2022-12-10T21:45:50.476Z,11.80
2022-12-10T21:48:24.043Z,12.37
2022-12-10T21:50:59.391Z,11.13
2022-12-10T21:53:29.114Z,12.23
2022-12-10T21:55:58.878Z,11.73
2022-12-10T21:58:28.402Z,11.73
2022-12-10T22:00:58.522Z,12.03
2022-12-10T22:03:30.636Z,11.43
2022-12-10T22:06:00.248Z,10.97
2022-12-10T22:08:29.787Z,10.97
2022-12-10T22:10:59.356Z,11.23
2022-12-10T22:13:28.868Z,10.93
2022-12-10T22:15:58.461Z,11.60
2022-12-10T22:18:30.764Z,10.83
2022-12-10T22:21:01.197Z,11.37
2022-12-10T22:23:31.251Z,11.33
2022-12-10T22:26:00.900Z,12.70
2022-12-10T22:28:30.723Z,13.20
2022-12-10T22:31:00.356Z,12.43
2022-12-10T22:33:32.498Z,13.30
2022-12-10T22:36:02.608Z,13.00
2022-12-10T22:38:32.082Z,13.23
2022-12-10T22:41:03.279Z,13.30
2022-12-10T22:43:50.877Z,12.40
2022-12-10T22:46:21.487Z,13.27
2022-12-10T22:48:53.817Z,11.10
2022-12-10T22:51:23.956Z,12.37
2022-12-10T22:53:55.929Z,12.83
2022-12-10T22:56:25.617Z,12.00
2022-12-10T22:58:56.125Z,12.10
2022-12-10T23:01:26.193Z,12.80
2022-12-10T23:03:58.384Z,13.40
2022-12-10T23:06:28.016Z,13.07
2022-12-10T23:08:57.520Z,12.57
2022-12-10T23:11:26.995Z,14.03
2022-12-10T23:13:56.542Z,12.43
2022-12-10T23:16:26.391Z,13.23
2022-12-10T23:18:58.649Z,11.40
2022-12-10T23:21:28.737Z,11.77
2022-12-10T23:23:58.229Z,11.90
2022-12-10T23:26:27.848Z,11.20
2022-12-10T23:28:57.347Z,10.87
2022-12-10T23:31:27.487Z,10.73
2022-12-10T23:33:59.930Z,12.47
2022-12-10T23:36:29.513Z,12.63
2022-12-10T23:38:59.306Z,11.40
2022-12-10T23:41:28.904Z,10.97
2022-12-10T23:43:58.442Z,11.23
2022-12-10T23:46:28.047Z,11.30
2022-12-10T23:49:00.250Z,10.67
2022-12-10T23:51:29.846Z,11.17
2022-12-10T23:53:59.401Z,11.33
2022-12-10T23:56:28.972Z,9.87
2022-12-10T23:58:58.617Z,10.07
